createdAt,value
2016-11-19T00:00:59.671Z,35.9
2016-11-19T00:01:59.611Z,35.03
2016-11-19T00:02:59.544Z,34.94
2016-11-19T00:03:59.483Z,34.94
2016-11-19T00:04:59.422Z,35.03
2016-11-19T00:05:59.362Z,35.71
2016-11-19T00:06:59.297Z,34.94
2016-11-19T00:07:59.242Z,35.13
2016-11-19T00:08:59.177Z,34.94
2016-11-19T00:09:59.115Z,34.84
2016-11-19T00:10:59.055Z,34.94
2016-11-19T00:11:58.993Z,35.13
2016-11-19T00:12:59.254Z,34.86
2016-11-19T00:13:58.871Z,34.84
2016-11-19T00:14:58.809Z,34.94
2016-11-19T00:15:58.748Z,35.03
2016-11-19T00:16:58.690Z,35.03
2016-11-19T00:17:58.623Z,34.84
2016-11-19T00:18:58.562Z,34.94
2016-11-19T00:19:58.502Z,35.22
2016-11-19T00:20:58.442Z,35.03
2016-11-19T00:21:58.379Z,34.84
2016-11-19T00:22:58.323Z,34.94
2016-11-19T00:23:58.255Z,34.94
2016-11-19T00:24:58.198Z,35.03
2016-11-19T00:25:58.150Z,35.03
2016-11-19T00:26:58.073Z,35.03
2016-11-19T00:27:58.013Z,35.03
2016-11-19T00:30:10.853Z,35.03
2016-11-19T00:31:10.787Z,34.94
2016-11-19T00:32:10.724Z,35.03
2016-11-19T00:33:10.665Z,35.03
2016-11-19T00:34:10.601Z,35.22
2016-11-19T00:35:10.841Z,35.32
2016-11-19T00:36:10.486Z,35.03
2016-11-19T00:37:10.417Z,34.94
2016-11-19T00:38:10.359Z,35.8
2016-11-19T00:39:10.293Z,34.94
2016-11-19T00:40:10.235Z,35.03
2016-11-19T00:41:22.911Z,35.13
2016-11-19T00:42:10.112Z,35.03
2016-11-19T00:43:10.048Z,35.03
2016-11-19T00:44:09.990Z,34.94
2016-11-19T00:45:09.926Z,35.03
2016-11-19T00:46:09.865Z,34.84
2016-11-19T00:47:09.808Z,35.03
2016-11-19T00:48:09.944Z,35.03
2016-11-19T00:49:09.679Z,35.03
2016-11-19T00:50:09.621Z,35.32
2016-11-19T00:51:09.558Z,35.8
2016-11-19T00:52:09.498Z,34.94
2016-11-19T00:53:09.446Z,35.03
2016-11-19T00:54:09.700Z,35.32
2016-11-19T00:55:09.315Z,35.03
2016-11-19T00:56:09.254Z,34.94
2016-11-19T00:57:09.194Z,34.74
2016-11-19T00:58:09.130Z,34.94
2016-11-19T00:59:09.070Z,34.74
2016-11-19T01:00:09.010Z,35.03
2016-11-19T01:01:08.945Z,34.94
2016-11-19T01:02:08.885Z,35.03
2016-11-19T01:03:08.824Z,34.84
2016-11-19T01:04:08.762Z,35.03
2016-11-19T01:05:08.703Z,35.03
2016-11-19T01:06:08.642Z,35.03
2016-11-19T01:07:08.581Z,35.8
2016-11-19T01:08:08.518Z,34.84
2016-11-19T01:09:08.456Z,35.03
2016-11-19T01:10:08.396Z,34.74
2016-11-19T01:11:08.333Z,35.42
2016-11-19T01:12:08.275Z,35.22
2016-11-19T01:13:08.212Z,34.74
2016-11-19T01:14:08.151Z,35.03
2016-11-19T01:15:08.085Z,34.84
2016-11-19T01:16:08.028Z,34.74
2016-11-19T01:17:07.966Z,35.42
2016-11-19T01:18:07.903Z,35.32
2016-11-19T01:19:07.846Z,35.03
2016-11-19T01:20:07.804Z,35.32
2016-11-19T01:21:07.718Z,35.03
2016-11-19T01:22:07.659Z,34.74
2016-11-19T01:23:07.600Z,35.22
2016-11-19T01:24:07.535Z,35.03
2016-11-19T01:25:07.479Z,34.74
2016-11-19T01:26:07.413Z,34.74
2016-11-19T01:27:07.352Z,35.13
2016-11-19T01:28:07.291Z,34.64
2016-11-19T01:29:07.229Z,34.74
2016-11-19T01:30:07.168Z,34.84
2016-11-19T01:31:07.108Z,34.74
2016-11-19T01:32:07.049Z,34.64
2016-11-19T01:33:06.984Z,34.74
2016-11-19T01:34:06.922Z,34.64
2016-11-19T01:35:06.863Z,35.03
2016-11-19T01:36:06.802Z,35.03
2016-11-19T01:37:06.736Z,34.74
2016-11-19T01:38:06.685Z,34.74
2016-11-19T01:39:06.617Z,35.13
2016-11-19T01:40:06.556Z,34.74
2016-11-19T01:41:06.493Z,35.52
2016-11-19T01:42:06.432Z,35.13
2016-11-19T01:43:06.370Z,34.74
2016-11-19T01:44:06.309Z,35.13
2016-11-19T01:45:06.246Z,34.84
2016-11-19T01:46:06.187Z,35.13
2016-11-19T01:47:06.136Z,34.64
2016-11-19T01:48:06.064Z,34.74
2016-11-19T01:49:06.001Z,34.64
2016-11-19T01:50:05.945Z,34.64
2016-11-19T01:51:05.880Z,34.64
2016-11-19T01:52:05.816Z,34.74
2016-11-19T01:53:05.756Z,34.74
2016-11-19T01:54:05.696Z,34.94
2016-11-19T01:55:05.635Z,34.74
2016-11-19T01:56:05.572Z,34.74
2016-11-19T01:57:05.510Z,34.74
2016-11-19T01:58:05.451Z,34.74
2016-11-19T01:59:05.417Z,34.74
2016-11-19T02:00:05.324Z,34.74
2016-11-19T02:01:05.266Z,34.74
2016-11-19T02:02:05.205Z,34.74
2016-11-19T02:03:05.141Z,35.03
2016-11-19T02:04:05.080Z,34.84
2016-11-19T02:05:05.020Z,34.94
2016-11-19T02:06:04.959Z,35.71
2016-11-19T02:07:04.894Z,35.13
2016-11-19T02:08:04.832Z,35.03
2016-11-19T02:09:04.775Z,34.64
2016-11-19T02:10:04.710Z,34.84
2016-11-19T02:11:04.652Z,34.64
2016-11-19T02:12:04.590Z,35.03
2016-11-19T02:13:04.526Z,34.74
2016-11-19T02:14:04.464Z,34.84
2016-11-19T02:15:04.408Z,35.13
2016-11-19T02:16:04.341Z,35.03
2016-11-19T02:17:04.280Z,34.84
2016-11-19T02:18:04.221Z,34.64
2016-11-19T02:19:04.478Z,34.74
2016-11-19T02:20:04.097Z,34.55
2016-11-19T02:21:04.035Z,35.22
2016-11-19T02:22:03.978Z,34.74
2016-11-19T02:23:03.910Z,34.74
2016-11-19T02:24:03.852Z,34.64
2016-11-19T02:25:03.788Z,34.74
2016-11-19T02:26:03.730Z,34.94
2016-11-19T02:27:03.667Z,35.32
2016-11-19T02:28:03.603Z,35.13
2016-11-19T02:29:03.542Z,34.64
2016-11-19T02:30:03.481Z,34.84
2016-11-19T02:31:03.423Z,35.03
2016-11-19T02:32:03.358Z,34.64
2016-11-19T02:33:03.301Z,34.64
2016-11-19T02:34:03.239Z,35.03
2016-11-19T02:35:03.178Z,34.74
2016-11-19T02:36:03.115Z,35.03
2016-11-19T02:37:03.054Z,34.94
2016-11-19T02:38:03.001Z,34.64
2016-11-19T02:39:02.951Z,34.84
2016-11-19T02:40:02.869Z,34.94
2016-11-19T02:41:02.808Z,34.64
2016-11-19T02:42:02.748Z,34.74
2016-11-19T02:43:02.685Z,34.84
2016-11-19T02:44:02.622Z,34.84
2016-11-19T02:45:02.560Z,34.64
2016-11-19T02:46:02.498Z,34.74
2016-11-19T02:47:02.440Z,35.03
2016-11-19T02:48:02.380Z,34.64
2016-11-19T02:49:02.318Z,34.74
2016-11-19T02:50:02.254Z,35.13
2016-11-19T02:51:02.196Z,34.94
2016-11-19T02:52:02.132Z,35.03
2016-11-19T02:53:02.070Z,34.74
2016-11-19T02:54:02.010Z,34.64
2016-11-19T02:55:01.951Z,35.03
2016-11-19T02:56:01.886Z,34.84
2016-11-19T02:57:01.826Z,34.74
2016-11-19T02:58:01.763Z,35.03
2016-11-19T02:59:01.702Z,34.74
2016-11-19T03:00:01.640Z,34.64
2016-11-19T03:01:01.579Z,34.94
2016-11-19T03:02:01.519Z,35.03
2016-11-19T03:03:01.459Z,35.03
2016-11-19T03:04:01.397Z,35.03
2016-11-19T03:05:01.334Z,34.94
2016-11-19T03:06:01.272Z,34.64
2016-11-19T03:07:01.211Z,35.13
2016-11-19T03:08:01.149Z,34.94
2016-11-19T03:09:01.086Z,34.94
2016-11-19T03:10:01.029Z,34.64
2016-11-19T03:11:00.963Z,34.74
2016-11-19T03:12:00.901Z,35.13
2016-11-19T03:13:00.841Z,34.64
2016-11-19T03:14:00.787Z,34.74
2016-11-19T03:15:00.730Z,35.03
2016-11-19T03:16:00.657Z,34.74
2016-11-19T03:17:00.599Z,34.94
2016-11-19T03:18:00.535Z,34.94
2016-11-19T03:19:00.471Z,35.03
2016-11-19T03:20:00.410Z,34.94
2016-11-19T03:21:00.349Z,35.03
2016-11-19T03:22:00.289Z,34.74
2016-11-19T03:23:00.225Z,34.84
2016-11-19T03:24:00.168Z,34.84
2016-11-19T03:25:00.104Z,35.03
2016-11-19T03:26:00.044Z,35.13
2016-11-19T03:26:59.978Z,34.84
2016-11-19T03:27:59.922Z,34.84
2016-11-19T03:28:59.856Z,34.74
2016-11-19T03:29:59.795Z,34.64
2016-11-19T03:30:59.736Z,35.13
2016-11-19T03:31:59.672Z,34.94
2016-11-19T03:32:59.613Z,34.74
2016-11-19T03:33:59.551Z,34.84
2016-11-19T03:34:59.490Z,34.64
2016-11-19T03:35:59.428Z,35.13
2016-11-19T03:36:59.370Z,34.64
2016-11-19T03:37:59.312Z,34.84
2016-11-19T03:38:59.244Z,34.74
2016-11-19T03:39:59.534Z,34.74
2016-11-19T03:40:59.121Z,34.74
2016-11-19T03:41:59.058Z,34.94
2016-11-19T03:42:58.999Z,34.64
2016-11-19T03:43:58.937Z,34.94
2016-11-19T03:44:58.876Z,34.64
2016-11-19T03:45:58.822Z,34.64
2016-11-19T03:46:58.750Z,34.64
2016-11-19T03:47:58.692Z,34.64
2016-11-19T03:48:58.633Z,34.94
2016-11-19T03:49:58.567Z,34.94
2016-11-19T03:50:58.508Z,34.94
2016-11-19T03:51:58.446Z,34.74
2016-11-19T03:52:58.381Z,34.64
2016-11-19T03:53:58.322Z,34.74
2016-11-19T03:54:58.266Z,35.13
2016-11-19T03:55:58.200Z,34.84
2016-11-19T03:56:58.141Z,34.74
2016-11-19T03:57:58.077Z,34.94
2016-11-19T03:58:58.017Z,35.13
2016-11-19T03:59:57.950Z,34.74
2016-11-19T04:00:57.893Z,35.13
2016-11-19T04:01:57.830Z,34.94
2016-11-19T04:02:57.766Z,35.03
2016-11-19T04:03:57.708Z,34.74
2016-11-19T04:04:57.646Z,34.74
2016-11-19T04:05:57.585Z,34.94
2016-11-19T04:06:57.523Z,34.64
2016-11-19T04:07:57.461Z,34.74
2016-11-19T04:08:57.407Z,34.84
2016-11-19T04:09:57.339Z,34.64
2016-11-19T04:10:57.277Z,34.84
2016-11-19T04:11:57.216Z,34.55
2016-11-19T04:12:57.160Z,34.84
2016-11-19T04:13:57.311Z,35.03
2016-11-19T04:14:57.029Z,34.94
2016-11-19T04:15:56.972Z,34.84
2016-11-19T04:16:56.909Z,34.84
2016-11-19T04:17:56.847Z,34.94
2016-11-19T04:18:57.001Z,35.03
2016-11-19T04:19:56.727Z,34.74
2016-11-19T04:20:56.660Z,34.84
2016-11-19T04:21:56.601Z,35.03
2016-11-19T04:22:56.540Z,34.74
2016-11-19T04:23:56.476Z,34.64
2016-11-19T04:24:56.419Z,34.64
2016-11-19T04:25:56.673Z,34.64
2016-11-19T04:26:56.299Z,34.64
2016-11-19T04:27:56.232Z,34.74
2016-11-19T04:28:56.172Z,34.84
2016-11-19T04:29:56.112Z,34.84
2016-11-19T04:30:56.054Z,34.74
2016-11-19T04:31:55.983Z,35.13
2016-11-19T04:32:55.922Z,35.03
2016-11-19T04:33:55.863Z,34.74
2016-11-19T04:34:55.803Z,34.74
2016-11-19T04:35:55.738Z,34.94
2016-11-19T04:36:55.679Z,34.64
2016-11-19T04:37:55.619Z,35.13
2016-11-19T04:38:55.558Z,34.64
2016-11-19T04:39:55.494Z,35.22
2016-11-19T04:40:55.433Z,34.74
2016-11-19T04:41:55.379Z,34.94
2016-11-19T04:42:55.312Z,34.74
2016-11-19T04:43:55.250Z,35.03
2016-11-19T04:44:55.189Z,34.64
2016-11-19T04:45:55.125Z,34.64
2016-11-19T04:46:55.064Z,34.74
2016-11-19T04:47:55.002Z,34.84
2016-11-19T04:48:54.943Z,34.94
2016-11-19T04:49:54.881Z,35.03
2016-11-19T04:50:54.817Z,34.74
2016-11-19T04:51:54.761Z,34.84
2016-11-19T04:52:54.703Z,34.94
2016-11-19T04:53:54.632Z,35.03
2016-11-19T04:54:54.578Z,34.74
2016-11-19T04:55:54.511Z,34.74
2016-11-19T04:56:54.450Z,35.03
2016-11-19T04:57:54.386Z,34.94
2016-11-19T04:58:54.328Z,34.55
2016-11-19T04:59:54.270Z,35.13
2016-11-19T05:00:54.208Z,34.84
2016-11-19T05:01:54.143Z,34.94
2016-11-19T05:02:54.080Z,34.74
2016-11-19T05:03:54.020Z,35.03
2016-11-19T05:04:53.960Z,34.74
2016-11-19T05:05:53.896Z,35.13
2016-11-19T05:06:53.833Z,34.84
2016-11-19T05:07:53.777Z,34.64
2016-11-19T05:08:53.714Z,34.64
2016-11-19T05:09:53.649Z,35.13
2016-11-19T05:10:53.590Z,34.84
2016-11-19T05:11:53.527Z,34.74
2016-11-19T05:12:53.468Z,34.94
2016-11-19T05:13:53.406Z,34.94
2016-11-19T05:14:53.340Z,35.03
2016-11-19T05:15:53.282Z,34.74
2016-11-19T05:16:53.221Z,34.94
2016-11-19T05:17:53.161Z,34.74
2016-11-19T05:18:53.099Z,34.64
2016-11-19T05:19:53.034Z,34.74
2016-11-19T05:20:52.975Z,34.26
2016-11-19T05:21:52.911Z,34.16
2016-11-19T05:22:52.852Z,34.45
2016-11-19T05:23:52.789Z,33.78
2016-11-19T05:24:52.729Z,33.78
2016-11-19T05:25:52.671Z,33.48
2016-11-19T05:26:52.604Z,33.78
2016-11-19T05:27:52.546Z,33.39
2016-11-19T05:28:52.485Z,33.58
2016-11-19T05:29:52.421Z,33.68
2016-11-19T05:30:52.362Z,33.29
2016-11-19T05:31:52.299Z,33.68
2016-11-19T05:32:52.272Z,33.87
2016-11-19T05:33:52.173Z,33.2
2016-11-19T05:34:52.113Z,33.58
2016-11-19T05:35:52.053Z,33.39
2016-11-19T05:36:51.992Z,33.39
2016-11-19T05:37:51.929Z,33.1
2016-11-19T05:38:51.866Z,33
2016-11-19T05:39:51.806Z,33.1
2016-11-19T05:40:51.743Z,33
2016-11-19T05:41:51.684Z,32.71
2016-11-19T05:42:51.618Z,33
2016-11-19T05:43:51.559Z,32.81
2016-11-19T05:44:51.497Z,32.91
2016-11-19T05:45:51.436Z,32.81
2016-11-19T05:46:51.373Z,32.62
2016-11-19T05:47:51.315Z,32.81
2016-11-19T05:48:51.253Z,32.71
2016-11-19T05:49:51.193Z,32.71
2016-11-19T05:50:51.137Z,32.43
2016-11-19T05:51:51.069Z,32.43
2016-11-19T05:52:51.008Z,32.43
2016-11-19T05:53:50.945Z,32.52
2016-11-19T05:54:50.883Z,32.52
2016-11-19T05:55:50.820Z,32.33
2016-11-19T05:56:50.764Z,32.43
2016-11-19T05:57:50.698Z,32.23
2016-11-19T05:58:50.637Z,32.43
2016-11-19T05:59:50.573Z,31.65
2016-11-19T06:00:50.512Z,32.04
2016-11-19T06:01:50.454Z,31.65
2016-11-19T06:02:50.391Z,31.85
2016-11-19T06:03:50.328Z,31.85
2016-11-19T06:04:50.265Z,32.04
2016-11-19T06:05:50.206Z,32.04
2016-11-19T06:06:50.141Z,32.04
2016-11-19T06:07:50.079Z,32.04
2016-11-19T06:08:50.021Z,32.23
2016-11-19T06:09:49.957Z,32.04
2016-11-19T06:10:49.895Z,31.75
2016-11-19T06:11:49.836Z,31.85
2016-11-19T06:12:49.976Z,31.94
2016-11-19T06:13:49.715Z,31.85
2016-11-19T06:14:49.647Z,32.04
2016-11-19T06:15:49.587Z,31.75
2016-11-19T06:16:49.846Z,31.65
2016-11-19T06:17:49.461Z,31.56
2016-11-19T06:18:49.399Z,31.37
2016-11-19T06:19:49.343Z,31.46
2016-11-19T06:20:49.282Z,31.46
2016-11-19T06:21:49.216Z,31.17
2016-11-19T06:22:49.157Z,31.37
2016-11-19T06:23:49.094Z,31.17
2016-11-19T06:24:49.030Z,31.56
2016-11-19T06:25:48.969Z,31.07
2016-11-19T06:26:49.232Z,31.27
2016-11-19T06:27:48.851Z,31.17
2016-11-19T06:28:48.784Z,31.37
2016-11-19T06:29:48.723Z,31.37
2016-11-19T06:30:48.663Z,31.37
2016-11-19T06:31:48.600Z,31.37
2016-11-19T06:32:48.538Z,31.17
2016-11-19T06:33:48.476Z,31.17
2016-11-19T06:34:48.418Z,31.27
2016-11-19T06:35:48.353Z,31.07
2016-11-19T06:36:48.291Z,31.07
2016-11-19T06:37:48.230Z,31.07
2016-11-19T06:38:48.168Z,30.98
2016-11-19T06:39:48.110Z,31.07
2016-11-19T06:40:48.044Z,30.98
2016-11-19T06:41:47.982Z,30.79
2016-11-19T06:42:47.925Z,30.49
2016-11-19T06:43:47.861Z,30.79
2016-11-19T06:44:47.797Z,30.59
2016-11-19T06:45:47.736Z,30.88
2016-11-19T06:46:47.677Z,30.98
2016-11-19T06:47:47.617Z,30.88
2016-11-19T06:48:47.587Z,30.98
2016-11-19T06:49:47.489Z,30.88
2016-11-19T06:50:47.429Z,30.88
2016-11-19T06:51:47.365Z,30.88
2016-11-19T06:52:47.310Z,30.59
2016-11-19T06:53:47.244Z,30.69
2016-11-19T06:54:47.184Z,30.79
2016-11-19T06:55:47.122Z,30.49
2016-11-19T06:56:47.057Z,30.4
2016-11-19T06:57:46.996Z,30.69
2016-11-19T06:58:46.938Z,30.69
2016-11-19T06:59:46.873Z,30.3
2016-11-19T07:00:46.814Z,30.88
2016-11-19T07:01:46.751Z,30.4
2016-11-19T07:02:46.686Z,30.79
2016-11-19T07:03:46.628Z,30.3
2016-11-19T07:04:46.568Z,30.49
2016-11-19T07:05:46.501Z,30.59
2016-11-19T07:06:46.444Z,30.49
2016-11-19T07:07:46.383Z,30.59
2016-11-19T07:08:46.319Z,30.49
2016-11-19T07:09:46.257Z,30.4
2016-11-19T07:10:46.194Z,30.49
2016-11-19T07:11:46.134Z,30.59
2016-11-19T07:12:46.072Z,30.69
2016-11-19T07:13:46.010Z,30.49
2016-11-19T07:14:45.947Z,30.4
2016-11-19T07:15:45.914Z,30.4
2016-11-19T07:16:45.823Z,30.21
2016-11-19T07:17:45.765Z,30.49
2016-11-19T07:18:45.703Z,30.3
2016-11-19T07:19:45.639Z,30.49
2016-11-19T07:20:45.580Z,30.21
2016-11-19T07:21:45.518Z,30.3
2016-11-19T07:22:45.458Z,30.49
2016-11-19T07:23:45.396Z,30.4
2016-11-19T07:24:45.333Z,30.3
2016-11-19T07:25:45.272Z,30.4
2016-11-19T07:26:45.209Z,30.3
2016-11-19T07:27:45.148Z,30.4
2016-11-19T07:28:45.089Z,30.11
2016-11-19T07:29:45.025Z,30.4
2016-11-19T07:30:44.967Z,30.11
2016-11-19T07:31:44.902Z,30.3
2016-11-19T07:32:44.841Z,30.01
2016-11-19T07:33:44.778Z,30.4
2016-11-19T07:34:44.716Z,30.21
2016-11-19T07:35:44.666Z,30.11
2016-11-19T07:36:44.593Z,30.01
2016-11-19T07:37:44.535Z,29.91
2016-11-19T07:38:44.471Z,29.91
2016-11-19T07:39:44.413Z,30.11
2016-11-19T07:40:44.346Z,30.11
2016-11-19T07:41:44.288Z,30.21
2016-11-19T07:42:44.222Z,30.01
2016-11-19T07:43:44.162Z,30.11
2016-11-19T07:44:44.101Z,30.21
2016-11-19T07:45:44.039Z,30.21
2016-11-19T07:46:43.979Z,30.11
2016-11-19T07:47:43.915Z,30.11
2016-11-19T07:48:43.854Z,30.01
2016-11-19T07:49:43.796Z,30.11
2016-11-19T07:50:43.730Z,30.21
2016-11-19T07:51:43.667Z,30.11
2016-11-19T07:52:43.613Z,30.01
2016-11-19T07:53:43.550Z,30.01
2016-11-19T07:54:43.484Z,30.11
2016-11-19T07:55:43.422Z,30.11
2016-11-19T07:56:43.360Z,30.11
2016-11-19T07:57:43.301Z,30.11
2016-11-19T07:58:43.239Z,30.11
2016-11-19T07:59:43.176Z,30.01
2016-11-19T08:00:43.117Z,30.3
2016-11-19T08:01:43.055Z,29.82
2016-11-19T08:02:42.994Z,30.11
2016-11-19T08:03:42.930Z,29.82
2016-11-19T08:04:42.869Z,30.11
2016-11-19T08:05:42.807Z,29.91
2016-11-19T08:06:42.745Z,30.11
2016-11-19T08:07:42.685Z,30
2016-11-19T08:08:42.622Z,30.11
2016-11-19T08:09:42.559Z,30.01
2016-11-19T08:10:42.500Z,29.71
2016-11-19T08:11:42.437Z,30.01
2016-11-19T08:12:42.381Z,29.91
2016-11-19T08:13:42.317Z,30.01
2016-11-19T08:14:42.251Z,30
2016-11-19T08:15:42.194Z,30.01
2016-11-19T08:16:42.128Z,29.82
2016-11-19T08:17:42.069Z,29.82
2016-11-19T08:18:42.008Z,29.91
2016-11-19T08:19:41.941Z,29.82
2016-11-19T08:20:41.884Z,29.82
2016-11-19T08:21:41.821Z,29.91
2016-11-19T08:22:42.963Z,29.82
2016-11-19T08:23:41.697Z,29.82
2016-11-19T08:24:41.658Z,29.91
2016-11-19T08:25:41.577Z,30.11
2016-11-19T08:26:41.512Z,29.82
2016-11-19T08:27:41.455Z,29.72
2016-11-19T08:28:41.388Z,29.9
2016-11-19T08:29:41.337Z,29.82
2016-11-19T08:30:41.268Z,29.82
2016-11-19T08:31:41.203Z,29.82
2016-11-19T08:32:41.145Z,29.72
2016-11-19T08:33:41.082Z,29.82
2016-11-19T08:34:41.017Z,29.82
2016-11-19T08:35:40.961Z,29.82
2016-11-19T08:36:40.895Z,29.8
2016-11-19T08:37:40.835Z,29.82
2016-11-19T08:38:40.774Z,29.72
2016-11-19T08:39:40.712Z,29.82
2016-11-19T08:40:40.652Z,29.91
2016-11-19T08:41:40.587Z,29.8
2016-11-19T08:42:40.527Z,29.72
2016-11-19T08:43:40.464Z,29.82
2016-11-19T08:44:40.402Z,29.8
2016-11-19T08:45:40.341Z,29.71
2016-11-19T08:46:40.278Z,29.82
2016-11-19T08:47:40.221Z,29.82
2016-11-19T08:48:40.156Z,29.72
2016-11-19T08:49:40.092Z,29.71
2016-11-19T08:50:40.035Z,29.63
2016-11-19T08:51:39.974Z,29.82
2016-11-19T08:52:39.940Z,29.82
2016-11-19T08:53:39.848Z,29.82
2016-11-19T08:54:39.786Z,29.63
2016-11-19T08:55:39.725Z,29.9
2016-11-19T08:56:39.664Z,29.61
2016-11-19T08:57:39.603Z,29.82
2016-11-19T08:58:39.539Z,29.82
2016-11-19T08:59:39.478Z,29.82
2016-11-19T09:00:39.415Z,29.72
2016-11-19T09:01:39.358Z,29.72
2016-11-19T09:02:39.289Z,29.91
2016-11-19T09:03:39.230Z,29.91
2016-11-19T09:04:39.170Z,29.82
2016-11-19T09:05:39.105Z,29.72
2016-11-19T09:06:39.044Z,29.8
2016-11-19T09:07:38.982Z,29.61
2016-11-19T09:08:38.922Z,29.72
2016-11-19T09:09:38.860Z,29.82
2016-11-19T09:10:38.796Z,29.8
2016-11-19T09:11:38.738Z,29.8
2016-11-19T09:12:38.678Z,29.72
2016-11-19T09:13:38.611Z,29.72
2016-11-19T09:14:38.551Z,29.72
2016-11-19T09:15:38.492Z,29.71
2016-11-19T09:16:38.429Z,29.82
2016-11-19T09:17:38.392Z,29.72
2016-11-19T09:18:38.304Z,29.82
2016-11-19T09:19:38.241Z,29.8
2016-11-19T09:20:38.184Z,29.72
2016-11-19T09:21:38.118Z,29.72
2016-11-19T09:22:38.075Z,29.71
2016-11-19T09:23:37.993Z,29.8
2016-11-19T09:24:37.933Z,29.82
2016-11-19T09:25:37.871Z,29.72
2016-11-19T09:26:37.812Z,29.72
2016-11-19T09:27:37.748Z,29.82
2016-11-19T09:28:37.689Z,29.8
2016-11-19T09:29:37.945Z,29.82
2016-11-19T09:30:37.563Z,29.63
2016-11-19T09:31:37.503Z,29.8
2016-11-19T09:32:37.441Z,29.53
2016-11-19T09:33:37.379Z,29.82
2016-11-19T09:34:37.315Z,29.61
2016-11-19T09:35:37.256Z,29.82
2016-11-19T09:36:37.193Z,29.8
2016-11-19T09:37:37.139Z,29.82
2016-11-19T09:38:37.073Z,29.72
2016-11-19T09:39:37.008Z,29.72
2016-11-19T09:40:36.944Z,29.71
2016-11-19T09:41:36.886Z,29.72
2016-11-19T09:42:36.824Z,29.72
2016-11-19T09:43:36.758Z,29.72
2016-11-19T09:44:36.700Z,29.82
2016-11-19T09:45:36.960Z,29.53
2016-11-19T09:46:36.576Z,29.8
2016-11-19T09:47:36.525Z,29.8
2016-11-19T09:48:36.449Z,29.71
2016-11-19T09:49:36.393Z,29.9
2016-11-19T09:50:36.332Z,29.82
2016-11-19T09:51:36.265Z,29.8
2016-11-19T09:52:36.202Z,29.82
2016-11-19T09:53:36.144Z,29.8
2016-11-19T09:54:36.082Z,29.71
2016-11-19T09:55:36.018Z,29.82
2016-11-19T09:56:35.956Z,29.52
2016-11-19T09:57:36.098Z,29.63
2016-11-19T09:58:35.835Z,29.71
2016-11-19T09:59:35.771Z,29.91
2016-11-19T10:00:35.709Z,29.82
2016-11-19T10:01:35.649Z,29.61
2016-11-19T10:02:35.587Z,29.63
2016-11-19T10:03:35.521Z,29.72
2016-11-19T10:04:35.463Z,29.82
2016-11-19T10:05:35.400Z,29.72
2016-11-19T10:06:35.339Z,29.8
2016-11-19T10:07:35.278Z,29.8
2016-11-19T10:08:35.218Z,29.82
2016-11-19T10:09:35.152Z,29.72
2016-11-19T10:10:35.093Z,29.82
2016-11-19T10:11:35.030Z,29.71
2016-11-19T10:12:34.966Z,29.82
2016-11-19T10:13:34.906Z,29.52
2016-11-19T10:14:34.845Z,29.82
2016-11-19T10:15:34.780Z,29.82
2016-11-19T10:16:34.719Z,29.72
2016-11-19T10:17:34.658Z,29.8
2016-11-19T10:18:34.596Z,29.8
2016-11-19T10:19:34.533Z,29.72
2016-11-19T10:20:34.477Z,29.71
2016-11-19T10:21:34.408Z,29.72
2016-11-19T10:22:34.351Z,29.8
2016-11-19T10:23:34.288Z,29.72
2016-11-19T10:24:34.226Z,29.82
2016-11-19T10:25:34.175Z,29.82
2016-11-19T10:26:34.104Z,29.71
2016-11-19T10:27:34.041Z,29.71
2016-11-19T10:28:33.978Z,29.82
2016-11-19T10:29:33.915Z,29.8
2016-11-19T10:30:33.855Z,29.82
2016-11-19T10:31:33.790Z,29.72
2016-11-19T10:32:34.056Z,29.8
2016-11-19T10:33:33.670Z,29.82
2016-11-19T10:34:33.608Z,29.71
2016-11-19T10:35:33.545Z,29.82
2016-11-19T10:36:33.486Z,29.63
2016-11-19T10:37:33.419Z,29.72
2016-11-19T10:38:33.361Z,29.72
2016-11-19T10:39:33.301Z,29.8
2016-11-19T10:40:33.237Z,29.82
2016-11-19T10:41:33.173Z,29.82
2016-11-19T10:42:33.142Z,29.63
2016-11-19T10:43:33.053Z,29.8
2016-11-19T10:44:32.992Z,29.72
2016-11-19T10:45:32.927Z,29.72
2016-11-19T10:46:32.864Z,29.8
2016-11-19T10:47:32.841Z,29.8
2016-11-19T10:48:32.742Z,29.9
2016-11-19T10:49:32.681Z,29.82
2016-11-19T10:50:32.620Z,29.8
2016-11-19T10:51:32.557Z,29.82
2016-11-19T10:52:32.498Z,29.8
2016-11-19T10:53:32.435Z,29.91
2016-11-19T10:54:32.369Z,29.82
2016-11-19T10:55:32.310Z,29.72
2016-11-19T10:56:32.249Z,29.9
2016-11-19T10:57:32.187Z,30.01
2016-11-19T10:58:32.123Z,29.82
2016-11-19T10:59:32.064Z,29.9
2016-11-19T11:00:32.003Z,30
2016-11-19T11:01:31.938Z,29.8
2016-11-19T11:02:31.875Z,29.8
2016-11-19T11:03:31.812Z,29.8
2016-11-19T11:04:31.751Z,29.61
2016-11-19T11:05:31.694Z,29.9
2016-11-19T11:06:31.628Z,30.01
2016-11-19T11:07:31.569Z,30.01
2016-11-19T11:08:31.505Z,29.91
2016-11-19T11:09:31.444Z,29.8
2016-11-19T11:10:31.380Z,30.01
2016-11-19T11:11:31.319Z,29.9
2016-11-19T11:12:31.256Z,29.72
2016-11-19T11:13:31.224Z,29.82
2016-11-19T11:14:31.141Z,30
2016-11-19T11:15:31.073Z,30
2016-11-19T11:16:31.052Z,30.21
2016-11-19T11:17:30.950Z,30.01
2016-11-19T11:18:30.887Z,30
2016-11-19T11:19:30.842Z,30.19
2016-11-19T11:20:30.763Z,30.21
2016-11-19T11:21:30.700Z,29.8
2016-11-19T11:22:30.639Z,30.1
2016-11-19T11:23:30.577Z,30.11
2016-11-19T11:24:30.515Z,30.1
2016-11-19T11:25:30.903Z,30.29
2016-11-19T11:26:30.393Z,30.21
2016-11-19T11:27:30.652Z,30
2016-11-19T11:28:30.269Z,30.19
2016-11-19T11:29:30.206Z,30.19
2016-11-19T11:30:30.144Z,30.1
2016-11-19T11:31:30.084Z,30.1
2016-11-19T11:32:30.019Z,30.1
2016-11-19T11:33:29.960Z,30.1
2016-11-19T11:34:29.898Z,30.01
2016-11-19T11:35:29.837Z,30.1
2016-11-19T11:36:29.778Z,30.01
2016-11-19T11:37:29.714Z,30.01
2016-11-19T11:38:29.647Z,30.1
2016-11-19T11:39:29.592Z,30
2016-11-19T11:40:29.526Z,30.1
2016-11-19T11:41:29.464Z,30
2016-11-19T11:42:29.407Z,30.1
2016-11-19T11:43:29.344Z,30.01
2016-11-19T11:44:29.278Z,30.29
2016-11-19T11:45:29.219Z,30.01
2016-11-19T11:46:29.152Z,30
2016-11-19T11:47:29.095Z,30.48
2016-11-19T11:48:29.058Z,30.49
2016-11-19T11:49:28.968Z,30.1
2016-11-19T11:50:28.946Z,30.19
2016-11-19T11:51:28.846Z,30.48
2016-11-19T11:52:28.788Z,30.38
2016-11-19T11:53:28.725Z,30.19
2016-11-19T11:54:28.664Z,30.3
2016-11-19T11:55:28.600Z,30.29
2016-11-19T11:56:28.536Z,30.38
2016-11-19T11:57:28.477Z,30.29
2016-11-19T11:58:28.414Z,30.19
2016-11-19T11:59:28.352Z,30.29
2016-11-19T12:00:28.289Z,30.48
2016-11-19T12:01:28.226Z,30.48
2016-11-19T12:02:28.165Z,30.19
2016-11-19T12:03:28.306Z,30.19
2016-11-19T12:04:28.043Z,30.58
2016-11-19T12:05:27.979Z,30.48
2016-11-19T12:06:27.920Z,30.49
2016-11-19T12:07:27.858Z,30.48
2016-11-19T12:08:27.797Z,30.48
2016-11-19T12:09:27.731Z,30.58
2016-11-19T12:10:27.682Z,30.48
2016-11-19T12:11:27.610Z,30.38
2016-11-19T12:12:27.548Z,30.58
2016-11-19T12:13:27.488Z,30.59
2016-11-19T12:14:27.425Z,30.49
2016-11-19T12:15:27.363Z,30.59
2016-11-19T12:16:27.302Z,30.49
2016-11-19T12:17:27.239Z,30.4
2016-11-19T12:18:27.179Z,30.67
2016-11-19T12:19:27.115Z,30.58
2016-11-19T12:20:27.058Z,30.38
2016-11-19T12:21:26.992Z,30.58
2016-11-19T12:22:26.933Z,30.48
2016-11-19T12:23:26.869Z,30.4
2016-11-19T12:24:26.810Z,30.19
2016-11-19T12:25:26.745Z,30.48
2016-11-19T12:26:26.683Z,30.59
2016-11-19T12:27:26.620Z,30.58
2016-11-19T12:28:26.559Z,30.77
2016-11-19T12:29:26.496Z,30.21
2016-11-19T12:30:26.436Z,30.4
2016-11-19T12:31:26.375Z,30.77
2016-11-19T12:32:26.313Z,30.67
2016-11-19T12:33:26.255Z,30.69
2016-11-19T12:34:26.190Z,30.48
2016-11-19T12:35:26.124Z,30.77
2016-11-19T12:36:26.070Z,30.48
2016-11-19T12:37:26.004Z,30.58
2016-11-19T12:38:25.945Z,30.58
2016-11-19T12:39:25.882Z,30.58
2016-11-19T12:40:25.818Z,30.38
2016-11-19T12:41:25.754Z,30.67
2016-11-19T12:42:25.896Z,30.38
2016-11-19T12:43:25.633Z,30.77
2016-11-19T12:44:25.574Z,30.49
2016-11-19T12:45:25.508Z,30.67
2016-11-19T12:46:25.449Z,30.48
2016-11-19T12:47:25.383Z,30.87
2016-11-19T12:48:25.328Z,30.67
2016-11-19T12:49:25.264Z,30.38
2016-11-19T12:50:25.202Z,30.77
2016-11-19T12:51:25.135Z,30.67
2016-11-19T12:52:25.075Z,30.67
2016-11-19T12:53:25.013Z,30.67
2016-11-19T12:54:24.953Z,30.69
2016-11-19T12:55:24.898Z,30.77
2016-11-19T12:56:24.827Z,30.96
2016-11-19T12:57:24.767Z,30.77